Time;durP1;ratioP1;P1;durP2;ratioP2;P2;SDS_P1;SDS_P2;PMS_P1;PMS_P2;Temp;Humidity;BMP_temperature;BMP_pressure;BME280_temperature;BME280_humidity;BME280_pressure;Samples;Min_cycle;Max_cycle;Signal;HPM_P1;HPM_P2
2022/08/22 00:08:52;;;;;;;3.83;1.92;;;;;;;22.76;73.83;99687.28;18490180;32;20107;-57
2022/08/22 00:19:03;;;;;;;5.28;1.77;;;;;;;22.71;73.05;99686.75;18489670;32;20093;-57
2022/08/22 00:29:11;;;;;;;7.57;2.00;;;;;;;22.63;72.52;99691.69;18489191;32;20093;-57
2022/08/22 00:39:21;;;;;;;5.55;1.85;;;;;;;22.53;72.85;99680.81;18488532;32;20128;-57
2022/08/22 00:49:43;;;;;;;3.37;1.60;;;;;;;22.63;72.37;99679.28;18497176;32;20093;-57
2022/08/22 01:00:02;;;;;;;5.90;2.10;;;;;;;22.58;71.73;99684.00;18497166;32;20386;-57
2022/08/22 01:10:21;;;;;;;3.37;1.60;;;;;;;22.45;71.83;99666.16;18495362;32;20158;-57
2022/08/22 01:20:54;;;;;;;3.28;1.70;;;;;;;22.46;71.85;99680.28;18496290;32;20133;-57
2022/08/22 01:31:17;;;;;;;4.12;2.05;;;;;;;22.45;72.17;99674.13;18496478;32;20137;-57
2022/08/22 01:41:38;;;;;;;3.25;1.75;;;;;;;22.44;72.36;99671.56;18495872;32;20731;-57
2022/08/22 01:51:46;;;;;;;3.57;1.80;;;;;;;22.15;73.52;99676.91;18494875;32;20114;-57
2022/08/22 02:01:58;;;;;;;4.15;1.80;;;;;;;22.22;72.84;99675.59;18496510;32;20081;-57
2022/08/22 02:12:22;;;;;;;3.08;1.60;;;;;;;22.50;71.77;99665.91;18494917;32;20432;-57
2022/08/22 02:22:39;;;;;;;4.62;2.08;;;;;;;22.29;72.40;99663.63;18495753;32;20097;-57
2022/08/22 02:32:59;;;;;;;3.63;1.83;;;;;;;22.27;72.14;99662.00;18494641;32;20103;-57
2022/08/22 02:43:19;;;;;;;4.07;1.92;;;;;;;22.35;71.85;99656.19;18494483;32;20096;-57
2022/08/22 02:53:29;;;;;;;3.78;2.00;;;;;;;22.19;72.32;99657.16;18494969;32;20123;-57
2022/08/22 03:03:39;;;;;;;3.80;2.10;;;;;;;22.24;72.07;99663.06;18493464;32;20369;-57
2022/08/22 03:13:50;;;;;;;5.70;2.03;;;;;;;22.36;72.04;99663.22;18493349;32;20111;-57
2022/08/22 03:23:58;;;;;;;5.05;2.30;;;;;;;22.35;72.20;99662.38;18492641;32;20125;-58
2022/08/22 03:34:21;;;;;;;4.40;1.87;;;;;;;22.29;72.45;99658.31;18492184;32;20096;-57
2022/08/22 03:45:01;;;;;;;6.53;2.40;;;;;;;22.31;72.19;99656.41;18491842;32;20126;-57
2022/08/22 03:55:19;;;;;;;3.80;1.92;;;;;;;22.35;72.02;99672.16;18491065;32;20089;-57
2022/08/22 04:05:38;;;;;;;5.47;2.45;;;;;;;22.42;72.01;99673.47;18489257;32;20093;-58
2022/08/22 04:16:03;;;;;;;5.40;2.33;;;;;;;22.54;71.63;99677.19;18491214;32;20081;-57
2022/08/22 04:26:12;;;;;;;6.18;2.20;;;;;;;22.55;71.23;99690.38;18498324;32;20084;-57
2022/08/22 04:36:20;;;;;;;5.30;2.47;;;;;;;22.53;71.57;99688.78;18497893;32;20185;-57
2022/08/22 04:46:38;;;;;;;5.78;2.50;;;;;;;22.58;71.60;99699.97;18497782;32;20153;-57
2022/08/22 04:56:53;;;;;;;6.72;2.42;;;;;;;22.73;71.33;99700.78;18497659;32;20431;-57
2022/08/22 05:07:06;;;;;;;5.20;2.30;;;;;;;22.71;71.51;99708.84;18497375;32;20362;-57
2022/08/22 05:17:13;;;;;;;6.03;2.60;;;;;;;22.66;71.71;99713.63;18530619;32;20157;-57
2022/08/22 05:27:23;;;;;;;6.70;2.90;;;;;;;22.48;72.30;99725.41;18560337;32;20099;-57
2022/08/22 05:37:34;;;;;;;7.07;2.42;;;;;;;22.53;73.21;99728.69;18561193;32;20099;-57
2022/08/22 05:47:41;;;;;;;7.70;3.03;;;;;;;22.85;71.94;99742.56;18556207;32;20102;-57
2022/08/22 05:57:48;;;;;;;6.60;2.80;;;;;;;22.91;71.97;99738.69;18556817;32;20114;-57
2022/08/22 06:07:58;;;;;;;6.75;2.70;;;;;;;22.81;72.75;99753.50;18560839;32;20122;-57
2022/08/22 06:18:19;;;;;;;5.47;2.40;;;;;;;23.00;72.39;99756.72;18559784;32;20453;-57
2022/08/22 06:28:26;;;;;;;7.55;3.03;;;;;;;23.09;72.89;99765.91;18556730;32;20088;-56
2022/08/22 06:38:32;;;;;;;8.23;3.25;;;;;;;23.23;73.01;99767.66;18555530;32;20096;-56
2022/08/22 06:48:37;;;;;;;9.48;3.30;;;;;;;23.19;73.54;99770.63;18558609;32;20137;-56
2022/08/22 06:58:42;;;;;;;8.85;3.42;;;;;;;23.44;73.31;99782.38;18559414;32;20095;-57
2022/08/22 07:08:53;;;;;;;9.25;3.58;;;;;;;23.74;72.76;99781.25;18557252;32;20149;-57
2022/08/22 07:18:56;;;;;;;;;;;;;;;23.93;72.31;99784.38;18500733;31;147978;-57
2022/08/22 07:29:03;;;;;;;10.00;4.00;;;;;;;24.23;72.18;99783.25;18492936;32;20626;-57
2022/08/22 07:39:23;;;;;;;9.27;3.87;;;;;;;24.15;72.13;99804.25;18492448;32;20111;-57
2022/08/22 07:49:32;;;;;;;8.60;4.05;;;;;;;24.35;72.12;99796.69;18513699;32;20473;-57
2022/08/22 07:59:43;;;;;;;12.02;4.80;;;;;;;24.49;70.86;99799.25;18556024;31;20432;-57
2022/08/22 08:09:51;;;;;;;10.98;5.12;;;;;;;24.68;70.41;99805.97;18553836;32;20097;-57
2022/08/22 08:19:55;;;;;;;12.55;5.25;;;;;;;24.75;68.87;99807.19;18538985;32;20152;-57
2022/08/22 08:30:02;;;;;;;10.18;5.30;;;;;;;25.27;69.60;99798.22;18536475;31;20089;-57
2022/08/22 08:40:16;;;;;;;13.40;6.10;;;;;;;25.58;65.10;99798.66;18515412;32;20188;-57
2022/08/22 08:50:33;;;;;;;10.77;5.65;;;;;;;25.34;67.36;99804.81;18552154;32;20377;-57
2022/08/22 09:00:50;;;;;;;12.05;5.85;;;;;;;26.04;63.59;99795.16;18551880;32;20076;-56
2022/08/22 09:11:29;;;;;;;11.35;5.93;;;;;;;25.84;65.25;99798.47;18560958;32;20107;-57
2022/08/22 09:22:18;;;;;;;13.32;6.28;;;;;;;26.03;63.52;99804.13;18547491;32;20166;-57
2022/08/22 09:32:33;;;;;;;12.95;6.07;;;;;;;26.27;64.13;99802.37;18561722;32;20092;-57
2022/08/22 09:42:43;;;;;;;13.73;6.37;;;;;;;26.36;65.12;99793.63;18557403;32;20111;-57
2022/08/22 09:52:55;;;;;;;12.27;6.32;;;;;;;26.41;63.93;99791.44;18508937;32;20077;-57
2022/08/22 10:03:05;;;;;;;13.62;6.00;;;;;;;26.31;63.98;99801.19;18517853;32;20111;-57
2022/08/22 10:13:18;;;;;;;13.53;5.60;;;;;;;26.24;64.06;99805.28;18442476;32;20109;-57
2022/08/22 10:23:28;;;;;;;10.48;4.80;;;;;;;25.59;62.55;99792.34;18421285;32;20389;-56
2022/08/22 10:33:35;;;;;;;11.50;4.37;;;;;;;24.90;64.54;99801.78;18486821;32;20573;-56
2022/08/22 10:43:48;;;;;;;10.67;4.87;;;;;;;25.95;61.67;99809.22;18557992;32;20100;-56
2022/08/22 10:54:37;;;;;;;10.15;4.60;;;;;;;25.96;60.82;99799.38;18543599;32;20440;-56
2022/08/22 11:04:54;;;;;;;10.82;4.70;;;;;;;26.23;59.50;99806.28;18354333;32;20514;-56
2022/08/22 11:15:06;;;;;;;9.63;4.32;;;;;;;27.09;59.94;99792.38;18336715;32;20109;-56
2022/08/22 11:25:29;;;;;;;10.45;4.15;;;;;;;26.79;59.13;99788.53;18352422;32;20113;-56
2022/08/22 11:35:54;;;;;;;11.25;4.35;;;;;;;27.48;57.60;99787.37;18371737;32;20140;-56
2022/08/22 11:46:00;;;;;;;11.02;4.82;;;;;;;26.43;57.71;99791.34;18550999;32;20369;-56
2022/08/22 11:56:16;;;;;;;7.93;3.80;;;;;;;27.28;56.36;99781.03;18555983;32;20088;-56
2022/08/22 12:06:50;;;;;;;8.55;3.95;;;;;;;27.51;54.63;99763.03;18552756;32;20144;-56
2022/08/22 12:17:17;;;;;;;11.27;4.78;;;;;;;27.31;54.34;99762.00;18549141;32;20092;-56
2022/08/22 12:28:07;;;;;;;9.93;4.40;;;;;;;28.18;56.27;99759.25;18549402;32;20127;-57
2022/08/22 12:38:25;;;;;;;8.90;3.63;;;;;;;27.92;52.74;99756.97;18542684;32;20091;-57
2022/08/22 12:48:52;;;;;;;9.60;4.28;;;;;;;28.41;52.49;99745.66;18555866;32;20147;-56
2022/08/22 12:59:32;;;;;;;9.75;4.30;;;;;;;28.06;51.92;99735.16;18558509;32;20444;-56
2022/08/22 13:09:38;;;;;;;8.75;4.12;;;;;;;28.23;51.89;99732.88;18538720;32;20103;-56
2022/08/22 13:19:54;;;;;;;9.00;4.03;;;;;;;28.16;50.82;99721.81;18555272;32;20097;-56
2022/08/22 13:30:00;;;;;;;9.93;4.72;;;;;;;28.67;51.80;99727.25;18561813;31;20102;-57
2022/08/22 13:40:08;;;;;;;9.90;4.30;;;;;;;29.26;49.58;99726.50;18560457;32;20097;-57
2022/08/22 13:50:19;;;;;;;9.55;4.30;;;;;;;29.94;46.30;99725.56;18558394;31;20092;-57
2022/08/22 14:01:07;;;;;;;9.43;4.10;;;;;;;29.74;47.56;99730.19;18558097;32;20123;-56
2022/08/22 14:11:20;;;;;;;8.95;4.18;;;;;;;29.34;49.20;99737.41;18287155;32;20137;-57
2022/08/22 14:21:35;;;;;;;8.32;4.00;;;;;;;28.71;50.17;99706.34;18289399;32;20157;-57
2022/08/22 14:31:55;;;;;;;10.85;4.82;;;;;;;28.53;51.81;99715.03;18291139;32;20125;-56
2022/08/22 14:42:07;;;;;;;9.70;4.45;;;;;;;28.32;53.19;99709.78;18340770;32;20398;-57
2022/08/22 14:52:32;;;;;;;10.02;4.20;;;;;;;28.49;53.43;99708.28;18494453;32;20120;-56
2022/08/22 15:02:35;;;;;;;8.52;4.25;;;;;;;28.49;52.85;99719.00;18494427;32;20085;-56
2022/08/22 15:12:46;;;;;;;9.63;4.45;;;;;;;28.34;52.59;99713.16;18538137;32;20111;-56
2022/08/22 15:22:51;;;;;;;7.37;3.28;;;;;;;28.07;54.47;99726.13;18554060;32;20123;-56
2022/08/22 15:33:08;;;;;;;6.45;3.10;;;;;;;27.89;55.12;99743.84;18548118;32;20096;-57
2022/08/22 15:43:22;;;;;;;7.78;3.10;;;;;;;27.04;56.93;99735.69;18557126;31;20088;-55
2022/08/22 15:53:30;;;;;;;7.65;3.70;;;;;;;26.72;58.49;99743.50;18557160;32;20140;-55
2022/08/22 16:03:42;;;;;;;13.43;9.43;;;;;;;26.75;57.28;99782.56;18555835;32;20081;-54
2022/08/22 16:13:47;;;;;;;7.07;3.20;;;;;;;26.76;56.34;99778.06;18550951;32;20652;-55
2022/08/22 16:24:28;;;;;;;8.85;3.75;;;;;;;26.50;56.86;99778.31;18563317;32;20100;-55
2022/08/22 16:34:42;;;;;;;8.70;2.87;;;;;;;26.54;57.14;99775.28;18565215;32;20093;-55
2022/08/22 16:44:46;;;;;;;7.10;1.23;;;;;;;25.08;62.04;99811.13;18565538;32;20138;-55
2022/08/22 16:54:52;;;;;;;6.95;1.77;;;;;;;20.09;74.71;100048.03;18552426;32;20085;-59
2022/08/22 17:05:10;;;;;;;4.43;1.80;;;;;;;21.60;72.92;99822.72;18541546;32;20111;-56
2022/08/22 17:15:25;;;;;;;4.20;1.80;;;;;;;21.90;71.58;99840.50;18558693;32;20114;-57
2022/08/22 17:25:34;;;;;;;7.45;2.67;;;;;;;22.02;72.97;99842.44;18551047;32;20406;-57
2022/08/22 17:35:49;;;;;;;5.45;2.10;;;;;;;22.13;73.93;99871.03;18562692;32;20089;-57
2022/08/22 17:46:05;;;;;;;5.95;1.92;;;;;;;22.13;74.59;99888.78;18562839;32;20184;-57
2022/08/22 17:56:20;;;;;;;5.37;2.20;;;;;;;22.38;74.26;99900.59;18563848;32;20359;-57
2022/08/22 18:06:27;;;;;;;6.10;2.40;;;;;;;22.72;74.11;99890.62;18562454;32;20115;-56
2022/08/22 18:16:35;;;;;;;5.97;2.28;;;;;;;22.91;74.30;99881.50;18560086;32;20107;-56
2022/08/22 18:26:44;;;;;;;7.32;2.30;;;;;;;22.75;74.91;99876.28;18557092;32;20127;-57
2022/08/22 18:36:54;;;;;;;7.22;2.45;;;;;;;22.67;75.50;99884.72;18554183;32;20116;-57
2022/08/22 18:46:59;;;;;;;7.67;2.57;;;;;;;22.36;77.52;99899.84;18559975;32;20416;-57
2022/08/22 18:57:08;;;;;;;6.18;2.40;;;;;;;;;;18558833;31;20092;-57
2022/08/22 19:07:52;;;;;;;8.45;3.15;;;;;;;23.25;74.04;99901.53;18510982;32;20379;-57
2022/08/22 19:18:14;;;;;;;7.15;2.70;;;;;;;23.10;74.96;99914.00;18281601;32;20161;-57
2022/08/22 19:28:27;;;;;;;6.10;2.28;;;;;;;23.13;74.83;99935.09;18290623;32;20147;-57
2022/08/22 19:39:00;;;;;;;5.18;2.00;;;;;;;22.71;76.37;99945.63;18270777;32;20125;-57
2022/08/22 19:49:25;;;;;;;5.55;2.03;;;;;;;23.14;74.40;99936.84;18385628;32;20123;-57
2022/08/22 19:59:48;;;;;;;5.55;2.05;;;;;;;23.23;74.15;99938.06;18491654;32;20088;-56
2022/08/22 20:10:06;;;;;;;3.90;1.67;;;;;;;22.83;75.31;99933.37;18489950;32;20123;-57
2022/08/22 20:20:37;;;;;;;5.20;2.05;;;;;;;23.04;74.68;99924.19;18549120;32;20087;-57
2022/08/22 20:30:48;;;;;;;6.78;2.20;;;;;;;23.11;74.00;99930.84;18554659;32;20104;-57
2022/08/22 20:41:00;;;;;;;4.70;2.15;;;;;;;23.07;73.14;99918.66;18553714;32;20128;-57
2022/08/22 20:51:05;;;;;;;4.33;2.10;;;;;;;22.94;72.59;99907.91;18554386;32;20131;-57
2022/08/22 21:01:12;;;;;;;3.83;1.90;;;;;;;22.76;73.03;99916.06;18534330;32;20149;-57
2022/08/22 21:11:40;;;;;;;4.68;2.17;;;;;;;22.90;72.69;99899.25;18497023;32;20105;-56
2022/08/22 21:21:45;;;;;;;5.57;2.25;;;;;;;22.48;74.13;99907.13;18519906;32;20096;-56
2022/08/22 21:31:51;;;;;;;5.57;2.00;;;;;;;22.63;73.87;99912.47;18559287;31;20092;-57
2022/08/22 21:42:11;;;;;;;4.15;1.85;;;;;;;22.74;73.75;99902.03;18557816;32;20402;-57
2022/08/22 21:52:27;;;;;;;3.08;1.30;;;;;;;22.79;73.11;99917.69;18555071;32;20590;-57
2022/08/22 22:02:35;;;;;;;3.53;1.48;;;;;;;22.34;74.37;99915.91;18552665;32;20785;-57
2022/08/22 22:12:40;;;;;;;4.15;1.73;;;;;;;22.00;75.47;99924.03;18552205;32;20169;-57
2022/08/22 22:22:47;;;;;;;4.80;1.85;;;;;;;22.34;74.17;99931.00;18556678;32;20113;-57
2022/08/22 22:32:53;;;;;;;4.60;2.03;;;;;;;22.54;74.03;99954.63;18553715;32;20391;-56
2022/08/22 22:43:02;;;;;;;7.18;2.00;;;;;;;22.39;74.04;99951.03;18556932;31;20114;-56
2022/08/22 22:53:10;;;;;;;6.05;2.00;;;;;;;22.50;73.67;99955.78;18554053;32;20108;-57
2022/08/22 23:03:26;;;;;;;5.32;2.10;;;;;;;22.57;73.57;99954.47;18530117;32;20120;-57
2022/08/22 23:13:33;;;;;;;6.00;2.30;;;;;;;22.58;74.10;99960.63;18502147;32;20080;-57
2022/08/22 23:23:47;;;;;;;4.40;1.90;;;;;;;22.68;73.41;99963.59;18557897;32;20092;-57
2022/08/22 23:33:54;;;;;;;6.32;2.17;;;;;;;22.71;73.42;99961.59;18557974;32;20084;-57
2022/08/22 23:44:06;;;;;;;6.87;2.30;;;;;;;22.67;73.74;99964.53;18542228;32;20122;-56
2022/08/22 23:54:19;;;;;;;5.35;2.30;;;;;;;22.75;73.46;99959.59;18497976;31;20093;-57
